createdAt,value
2023-02-17T00:01:19.436Z,7.20
2023-02-17T00:03:48.218Z,7.30
2023-02-17T00:06:15.921Z,7.20
2023-02-17T00:08:42.763Z,7.30
2023-02-17T00:11:09.751Z,7.30
2023-02-17T00:13:36.493Z,7.30
2023-02-17T00:16:07.785Z,7.30
2023-02-17T00:18:34.832Z,7.30
2023-02-17T00:21:10.372Z,7.30
2023-02-17T00:23:37.250Z,7.30
2023-02-17T00:26:07.781Z,7.30
2023-02-17T00:28:34.750Z,7.30
2023-02-17T00:31:05.886Z,7.40
2023-02-17T00:33:32.652Z,7.40
2023-02-17T00:35:59.290Z,7.40
2023-02-17T00:38:25.998Z,7.40
2023-02-17T00:40:53.506Z,7.40
2023-02-17T00:43:20.162Z,7.40
2023-02-17T00:45:46.952Z,7.40
2023-02-17T00:48:13.639Z,7.40
2023-02-17T00:50:40.398Z,7.40
2023-02-17T00:53:07.052Z,7.50
2023-02-17T00:55:33.752Z,7.40
2023-02-17T00:58:00.461Z,7.50
2023-02-17T01:00:27.426Z,7.50
2023-02-17T01:02:54.114Z,7.60
2023-02-17T01:05:20.788Z,7.60
2023-02-17T01:07:47.549Z,7.60
2023-02-17T01:10:14.234Z,7.60
2023-02-17T01:12:40.961Z,7.70
2023-02-17T01:15:07.792Z,7.60
2023-02-17T01:17:34.464Z,7.70
2023-02-17T01:20:01.171Z,7.70
2023-02-17T01:22:28.342Z,7.70
2023-02-17T01:24:55.129Z,7.70
2023-02-17T01:27:21.938Z,7.60
2023-02-17T01:29:48.952Z,7.70
2023-02-17T01:32:15.601Z,7.60
2023-02-17T01:34:42.249Z,7.60
2023-02-17T01:37:09.058Z,7.60
2023-02-17T01:39:36.332Z,7.50
2023-02-17T01:42:03.067Z,7.50
2023-02-17T01:44:31.611Z,7.50
2023-02-17T01:46:58.306Z,7.40
2023-02-17T01:49:28.092Z,7.40
2023-02-17T01:52:07.207Z,7.40
2023-02-17T01:54:37.152Z,7.40
2023-02-17T01:57:03.914Z,7.40
2023-02-17T01:59:30.896Z,7.30
2023-02-17T02:01:59.178Z,7.30
2023-02-17T02:04:28.417Z,7.30
2023-02-17T02:06:55.091Z,7.30
2023-02-17T02:09:23.412Z,7.30
2023-02-17T02:11:50.771Z,7.30
2023-02-17T02:14:18.354Z,7.30
2023-02-17T02:16:57.020Z,7.30
2023-02-17T02:19:42.546Z,7.30
2023-02-17T02:22:19.200Z,7.30
2023-02-17T02:24:48.575Z,7.30
2023-02-17T02:27:29.315Z,7.30
2023-02-17T02:30:10.291Z,7.30
2023-02-17T02:32:52.510Z,7.40
2023-02-17T02:35:22.526Z,7.40
2023-02-17T02:37:49.316Z,7.30
2023-02-17T02:40:20.952Z,7.30
2023-02-17T02:42:48.118Z,7.40
2023-02-17T02:45:17.264Z,7.40
2023-02-17T02:47:46.042Z,7.40
2023-02-17T02:50:21.384Z,7.40
2023-02-17T02:52:53.573Z,7.40
2023-02-17T02:55:41.511Z,7.40
2023-02-17T02:58:32.056Z,7.40
2023-02-17T03:01:22.429Z,7.50
2023-02-17T03:03:56.625Z,7.50
2023-02-17T03:06:28.018Z,7.50
2023-02-17T03:08:58.946Z,7.50
2023-02-17T03:11:34.892Z,7.50
2023-02-17T03:14:04.581Z,7.50
2023-02-17T03:16:32.559Z,7.60
2023-02-17T03:18:59.462Z,7.60
2023-02-17T03:21:31.845Z,7.60
2023-02-17T03:23:58.523Z,7.60
2023-02-17T03:26:25.223Z,7.60
2023-02-17T03:28:51.972Z,7.60
2023-02-17T03:31:18.923Z,7.60
2023-02-17T03:33:45.547Z,7.60
2023-02-17T03:36:12.206Z,7.60
2023-02-17T03:38:38.827Z,7.60
2023-02-17T03:41:05.614Z,7.70
2023-02-17T03:43:32.237Z,7.70
2023-02-17T03:45:58.912Z,7.70
2023-02-17T03:48:25.890Z,7.70
2023-02-17T03:50:52.535Z,7.80
2023-02-17T03:53:19.150Z,7.80
2023-02-17T03:55:45.872Z,7.80
2023-02-17T03:58:12.591Z,7.70
2023-02-17T04:00:39.273Z,7.80
2023-02-17T04:03:05.956Z,7.80
2023-02-17T04:05:32.635Z,7.80
2023-02-17T04:07:59.486Z,7.90
2023-02-17T04:10:26.290Z,7.90
2023-02-17T04:12:52.902Z,7.90
2023-02-17T04:15:19.656Z,7.90
2023-02-17T04:17:46.274Z,7.90
2023-02-17T04:20:14.018Z,7.90
2023-02-17T04:22:40.675Z,7.90
2023-02-17T04:25:07.356Z,7.90
2023-02-17T04:27:33.997Z,7.90
2023-02-17T04:30:00.721Z,7.90
2023-02-17T04:32:27.468Z,7.90
2023-02-17T04:34:54.141Z,7.90
2023-02-17T04:37:20.763Z,7.90
2023-02-17T04:39:47.370Z,7.90
2023-02-17T04:42:14.326Z,7.80
2023-02-17T04:44:41.073Z,7.80
2023-02-17T04:47:07.743Z,7.80
2023-02-17T04:49:34.399Z,7.80
2023-02-17T04:52:01.074Z,7.70
2023-02-17T04:54:27.722Z,7.80
2023-02-17T04:56:54.356Z,7.80
2023-02-17T04:59:21.030Z,7.80
2023-02-17T05:01:47.676Z,7.80
2023-02-17T05:04:14.386Z,7.80
2023-02-17T05:06:41.013Z,7.80
2023-02-17T05:09:07.629Z,7.80
2023-02-17T05:11:34.273Z,7.80
2023-02-17T05:14:00.855Z,7.80
2023-02-17T05:16:27.548Z,7.80
2023-02-17T05:18:54.213Z,7.80
2023-02-17T05:21:20.913Z,7.80
2023-02-17T05:23:47.725Z,7.90
2023-02-17T05:26:14.372Z,7.90
2023-02-17T05:28:41.021Z,7.90
2023-02-17T05:31:07.883Z,7.90
2023-02-17T05:33:34.632Z,7.90
2023-02-17T05:36:05.367Z,8.00
2023-02-17T05:38:32.171Z,8.00
2023-02-17T05:40:58.952Z,8.00
2023-02-17T05:43:25.581Z,8.10
2023-02-17T05:45:52.434Z,8.10
2023-02-17T05:48:19.346Z,8.20
2023-02-17T05:50:46.007Z,8.20
2023-02-17T05:53:12.753Z,8.20
2023-02-17T05:55:39.725Z,8.30
2023-02-17T05:58:06.331Z,8.30
2023-02-17T06:00:33.140Z,8.30
2023-02-17T06:03:00.020Z,8.30
2023-02-17T06:05:26.824Z,8.30
2023-02-17T06:07:53.475Z,8.30
2023-02-17T06:10:20.422Z,8.30
2023-02-17T06:12:47.195Z,8.30
2023-02-17T06:15:13.883Z,8.30
2023-02-17T06:17:40.528Z,8.30
2023-02-17T06:20:07.891Z,8.40
2023-02-17T06:22:34.570Z,8.40
2023-02-17T06:25:01.184Z,8.40
2023-02-17T06:27:27.807Z,8.40
2023-02-17T06:29:54.771Z,8.40
2023-02-17T06:32:21.423Z,8.40
2023-02-17T06:34:48.149Z,8.40
2023-02-17T06:37:14.836Z,8.40
2023-02-17T06:39:41.471Z,8.40
2023-02-17T06:42:08.141Z,8.50
2023-02-17T06:44:34.736Z,8.50
2023-02-17T06:47:01.379Z,8.40
2023-02-17T06:49:28.268Z,8.40
2023-02-17T06:51:54.921Z,8.40
2023-02-17T06:54:21.508Z,8.40
2023-02-17T06:56:48.281Z,8.40
2023-02-17T06:59:14.982Z,8.40
2023-02-17T07:01:41.774Z,8.40
2023-02-17T07:04:08.429Z,8.40
2023-02-17T07:06:35.148Z,8.50
2023-02-17T07:09:01.990Z,8.50
2023-02-17T07:11:31.390Z,8.50
2023-02-17T07:13:58.524Z,8.60
2023-02-17T07:16:25.511Z,8.60
2023-02-17T07:18:52.172Z,8.60
2023-02-17T07:21:18.876Z,8.70
2023-02-17T07:23:45.646Z,8.80
2023-02-17T07:26:12.841Z,8.80
2023-02-17T07:28:39.758Z,8.80
2023-02-17T07:31:07.197Z,8.80
2023-02-17T07:33:34.217Z,8.90
2023-02-17T07:36:01.444Z,8.90
2023-02-17T07:38:28.069Z,8.90
2023-02-17T07:40:54.853Z,8.90
2023-02-17T07:43:21.477Z,8.90
2023-02-17T07:45:48.199Z,8.90
2023-02-17T07:48:14.882Z,9.00
2023-02-17T07:50:41.515Z,9.00
2023-02-17T07:53:08.252Z,9.10
2023-02-17T07:55:35.572Z,9.20
2023-02-17T07:58:02.323Z,9.10
2023-02-17T08:00:29.089Z,9.20
2023-02-17T08:02:55.720Z,9.20
2023-02-17T08:05:22.412Z,9.30
2023-02-17T08:08:09.018Z,9.30
2023-02-17T08:10:55.694Z,9.30
2023-02-17T08:13:22.884Z,9.30
2023-02-17T08:15:49.539Z,9.40
2023-02-17T08:18:16.149Z,9.40
2023-02-17T08:20:42.805Z,9.40
2023-02-17T08:23:09.714Z,9.40
2023-02-17T08:25:36.753Z,9.40
2023-02-17T08:28:04.710Z,9.50
2023-02-17T08:30:31.619Z,9.50
2023-02-17T08:32:58.402Z,9.50
2023-02-17T08:35:25.856Z,9.50
2023-02-17T08:37:52.678Z,9.60
2023-02-17T08:40:19.595Z,9.70
2023-02-17T08:42:46.295Z,9.70
2023-02-17T08:45:13.585Z,9.70
2023-02-17T08:47:40.294Z,9.70
2023-02-17T08:50:08.067Z,9.70
2023-02-17T08:52:35.125Z,9.80
2023-02-17T08:55:01.806Z,9.80
2023-02-17T08:57:28.965Z,9.90
2023-02-17T08:59:55.869Z,9.90
2023-02-17T09:02:23.033Z,9.90
2023-02-17T09:04:50.436Z,9.90
2023-02-17T09:07:18.014Z,10.00
2023-02-17T09:09:45.279Z,10.00
2023-02-17T09:12:11.994Z,10.10
2023-02-17T09:14:38.670Z,10.10
2023-02-17T09:17:05.930Z,10.20
2023-02-17T09:19:32.767Z,10.20
2023-02-17T09:21:59.534Z,10.20
2023-02-17T09:24:26.341Z,10.20
2023-02-17T09:26:53.013Z,10.20
2023-02-17T09:29:19.717Z,10.20
2023-02-17T09:31:46.757Z,10.30
2023-02-17T09:34:14.211Z,10.20
2023-02-17T09:36:41.336Z,10.20
2023-02-17T09:39:12.413Z,10.10
2023-02-17T09:41:48.183Z,10.10
2023-02-17T09:44:19.473Z,10.10
2023-02-17T09:47:01.394Z,10.10
2023-02-17T09:49:50.057Z,10.10
2023-02-17T09:52:21.148Z,10.20
2023-02-17T09:55:07.745Z,10.30
2023-02-17T09:57:54.755Z,10.30
2023-02-17T10:00:23.979Z,10.40
2023-02-17T10:02:58.080Z,10.60
2023-02-17T10:05:27.050Z,10.60
2023-02-17T10:07:56.540Z,10.60
2023-02-17T10:10:31.539Z,10.70
2023-02-17T10:13:00.415Z,10.70
2023-02-17T10:15:29.063Z,10.70
2023-02-17T10:17:57.610Z,10.80
2023-02-17T10:20:26.704Z,10.90
2023-02-17T10:22:59.947Z,11.00
2023-02-17T10:25:59.463Z,11.00
2023-02-17T10:28:29.301Z,11.10
2023-02-17T10:31:04.242Z,11.10
2023-02-17T10:33:33.952Z,11.10
2023-02-17T10:36:00.959Z,11.20
2023-02-17T10:38:54.316Z,11.30
2023-02-17T10:41:26.495Z,11.30
2023-02-17T10:43:53.220Z,11.40
2023-02-17T10:46:25.790Z,11.30
2023-02-17T10:48:53.487Z,11.40
2023-02-17T10:51:22.784Z,11.40
2023-02-17T10:53:52.374Z,11.60
2023-02-17T10:56:19.164Z,11.70
2023-02-17T10:58:45.825Z,11.70
2023-02-17T11:01:17.945Z,11.90
2023-02-17T11:04:08.518Z,11.90
2023-02-17T11:06:42.555Z,12.00
2023-02-17T11:09:18.391Z,12.00
2023-02-17T11:11:50.754Z,12.10
2023-02-17T11:14:31.683Z,12.10
2023-02-17T11:17:02.909Z,12.10
2023-02-17T11:19:33.873Z,12.00
2023-02-17T11:22:03.871Z,12.00
2023-02-17T11:24:31.602Z,12.00
2023-02-17T11:27:05.748Z,12.10
2023-02-17T11:29:34.150Z,12.30
2023-02-17T11:32:04.764Z,12.40
2023-02-17T11:34:36.148Z,12.40
2023-02-17T11:37:12.272Z,12.40
2023-02-17T11:39:49.636Z,12.40
2023-02-17T11:42:22.723Z,12.40
2023-02-17T11:44:49.891Z,12.40
2023-02-17T11:47:23.825Z,12.40
2023-02-17T11:49:50.470Z,12.40
2023-02-17T11:52:29.432Z,12.40
2023-02-17T11:54:59.189Z,12.40
2023-02-17T11:57:25.956Z,12.40
2023-02-17T11:59:56.515Z,12.30
2023-02-17T12:02:52.365Z,12.30
2023-02-17T12:05:22.528Z,12.20
2023-02-17T12:08:04.455Z,12.20
2023-02-17T12:10:57.540Z,12.10
2023-02-17T12:13:43.063Z,12.10
2023-02-17T12:16:12.951Z,12.10
2023-02-17T12:18:55.490Z,12.10
2023-02-17T12:21:51.076Z,12.00
2023-02-17T12:24:36.607Z,12.00
2023-02-17T12:27:13.727Z,12.00
2023-02-17T12:29:53.904Z,12.00
2023-02-17T12:32:33.884Z,12.00
2023-02-17T12:35:03.873Z,12.10
2023-02-17T12:37:32.062Z,12.10
2023-02-17T12:39:58.955Z,12.10
2023-02-17T12:42:37.131Z,12.20
2023-02-17T12:45:13.175Z,12.30
2023-02-17T12:47:56.664Z,12.30
2023-02-17T12:50:37.419Z,12.40
2023-02-17T12:53:11.496Z,12.50
2023-02-17T12:55:46.714Z,12.40
2023-02-17T12:58:16.302Z,12.50
2023-02-17T13:00:46.118Z,12.40
2023-02-17T13:03:12.905Z,12.50
2023-02-17T13:05:50.280Z,12.40
2023-02-17T13:08:19.973Z,12.40
2023-02-17T13:10:46.610Z,12.40
2023-02-17T13:13:25.065Z,12.50
2023-02-17T13:16:01.486Z,12.50
2023-02-17T13:18:29.512Z,12.60
2023-02-17T13:21:00.540Z,12.70
2023-02-17T13:23:35.590Z,12.70
2023-02-17T13:26:23.957Z,12.70
2023-02-17T13:28:51.561Z,12.80
2023-02-17T13:31:20.296Z,12.90
2023-02-17T13:33:48.573Z,12.90
2023-02-17T13:36:16.696Z,12.90
2023-02-17T13:38:52.621Z,12.90
2023-02-17T13:41:19.269Z,12.80
2023-02-17T13:43:46.340Z,12.80
2023-02-17T13:46:16.796Z,12.80
2023-02-17T13:48:43.451Z,12.70
2023-02-17T13:51:24.462Z,12.80
2023-02-17T13:53:51.619Z,12.80
2023-02-17T13:56:28.466Z,12.80
2023-02-17T13:59:05.938Z,12.80
2023-02-17T14:01:32.869Z,12.90
2023-02-17T14:04:00.248Z,12.90
2023-02-17T14:06:32.454Z,12.90
2023-02-17T14:08:59.081Z,12.90
2023-02-17T14:11:27.047Z,12.90
2023-02-17T14:13:57.682Z,12.90
2023-02-17T14:16:31.881Z,12.90
2023-02-17T14:19:01.542Z,12.90
2023-02-17T14:21:28.464Z,12.90
2023-02-17T14:23:56.101Z,13.00
2023-02-17T14:26:31.653Z,13.20
2023-02-17T14:28:59.728Z,13.50
2023-02-17T14:31:27.069Z,14.00
2023-02-17T14:33:53.780Z,14.40
2023-02-17T14:36:28.147Z,14.70
2023-02-17T14:38:55.591Z,15.00
2023-02-17T14:41:22.210Z,15.10
2023-02-17T14:43:48.873Z,15.10
2023-02-17T14:46:19.315Z,15.10
2023-02-17T14:48:49.772Z,14.90
2023-02-17T14:51:18.804Z,14.70
2023-02-17T14:53:46.393Z,14.50
2023-02-17T14:56:45.661Z,14.30
2023-02-17T14:59:12.385Z,14.10
2023-02-17T15:01:39.033Z,13.90
2023-02-17T15:04:05.899Z,13.80
2023-02-17T15:06:37.608Z,13.60
2023-02-17T15:09:04.301Z,13.50
2023-02-17T15:11:34.451Z,13.40
2023-02-17T15:14:02.723Z,13.30
2023-02-17T15:16:29.579Z,13.20
2023-02-17T15:18:56.411Z,13.10
2023-02-17T15:21:33.218Z,13.10
2023-02-17T15:24:00.558Z,13.10
2023-02-17T15:26:28.017Z,13.00
2023-02-17T15:28:57.082Z,13.00
2023-02-17T15:31:25.419Z,13.00
2023-02-17T15:33:57.077Z,13.00
2023-02-17T15:36:24.797Z,13.10
2023-02-17T15:38:51.470Z,13.10
2023-02-17T15:41:22.868Z,13.00
2023-02-17T15:43:49.761Z,13.10
2023-02-17T15:46:18.034Z,13.00
2023-02-17T15:48:45.678Z,13.10
2023-02-17T15:51:14.963Z,13.00
2023-02-17T15:53:42.271Z,13.00
2023-02-17T15:56:11.631Z,12.90
2023-02-17T15:58:38.288Z,12.90
2023-02-17T16:01:05.141Z,12.80
2023-02-17T16:03:32.156Z,12.70
2023-02-17T16:05:58.877Z,12.60
2023-02-17T16:08:25.564Z,12.50
2023-02-17T16:10:52.329Z,12.40
2023-02-17T16:13:27.110Z,12.30
2023-02-17T16:15:54.967Z,12.20
2023-02-17T16:18:22.690Z,12.20
2023-02-17T16:20:50.296Z,12.10
2023-02-17T16:23:17.484Z,12.10
2023-02-17T16:25:45.145Z,12.00
2023-02-17T16:28:19.683Z,12.00
2023-02-17T16:30:46.794Z,11.80
2023-02-17T16:33:14.380Z,11.70
2023-02-17T16:35:42.480Z,11.60
2023-02-17T16:38:16.780Z,11.50
2023-02-17T16:40:47.293Z,11.40
2023-02-17T16:43:15.384Z,11.40
2023-02-17T16:45:50.211Z,11.30
2023-02-17T16:48:16.981Z,11.20
2023-02-17T16:50:43.726Z,11.20
2023-02-17T16:53:11.701Z,11.20
2023-02-17T16:55:38.791Z,11.10
2023-02-17T16:58:11.372Z,11.10
2023-02-17T17:00:38.341Z,11.10
2023-02-17T17:03:04.970Z,11.10
2023-02-17T17:05:31.712Z,11.10
2023-02-17T17:07:58.377Z,11.10
2023-02-17T17:10:26.582Z,11.10
2023-02-17T17:12:53.294Z,11.10
2023-02-17T17:15:20.403Z,11.20
2023-02-17T17:17:56.853Z,11.20
2023-02-17T17:20:27.887Z,11.20
2023-02-17T17:22:54.788Z,11.20
2023-02-17T17:25:21.637Z,11.20
2023-02-17T17:27:48.372Z,11.20
2023-02-17T17:30:16.401Z,11.30
2023-02-17T17:32:43.129Z,11.30
2023-02-17T17:35:09.875Z,11.30
2023-02-17T17:37:39.149Z,11.30
2023-02-17T17:40:06.638Z,11.20
2023-02-17T17:42:33.449Z,11.30
2023-02-17T17:45:00.200Z,11.30
2023-02-17T17:47:30.275Z,11.20
2023-02-17T17:49:57.924Z,11.20
2023-02-17T17:52:24.935Z,11.10
2023-02-17T17:54:51.698Z,11.10
2023-02-17T17:57:18.368Z,11.00
2023-02-17T17:59:45.032Z,11.00
2023-02-17T18:02:11.676Z,11.00
2023-02-17T18:04:38.401Z,10.90
2023-02-17T18:07:05.324Z,10.90
2023-02-17T18:09:34.825Z,10.90
2023-02-17T18:12:04.378Z,10.90
2023-02-17T18:14:31.956Z,10.90
2023-02-17T18:16:58.813Z,10.80
2023-02-17T18:19:25.712Z,10.80
2023-02-17T18:21:52.494Z,10.70
2023-02-17T18:24:19.115Z,10.70
2023-02-17T18:26:45.824Z,10.60
2023-02-17T18:29:12.562Z,10.60
2023-02-17T18:31:39.562Z,10.70
2023-02-17T18:34:06.470Z,10.60
2023-02-17T18:36:33.213Z,10.50
2023-02-17T18:38:59.964Z,10.50
2023-02-17T18:41:28.208Z,10.50
2023-02-17T18:43:55.232Z,10.50
2023-02-17T18:46:22.288Z,10.50
2023-02-17T18:48:49.643Z,10.50
2023-02-17T18:51:19.288Z,10.50
2023-02-17T18:53:45.969Z,10.50
2023-02-17T18:56:13.959Z,10.50
2023-02-17T18:58:40.670Z,10.50
2023-02-17T19:01:13.776Z,10.50
2023-02-17T19:03:40.645Z,10.50
2023-02-17T19:06:11.487Z,10.40
2023-02-17T19:08:38.416Z,10.40
2023-02-17T19:11:05.174Z,10.40
2023-02-17T19:13:31.817Z,10.50
2023-02-17T19:16:28.885Z,10.50
2023-02-17T19:18:56.278Z,10.60
2023-02-17T19:21:23.756Z,10.70
2023-02-17T19:23:51.332Z,10.80
2023-02-17T19:26:18.815Z,10.80
2023-02-17T19:28:46.527Z,10.70
2023-02-17T19:31:18.141Z,10.70
2023-02-17T19:33:45.712Z,10.70
2023-02-17T19:36:13.957Z,10.70
2023-02-17T19:38:40.868Z,10.80
2023-02-17T19:41:08.769Z,10.80
2023-02-17T19:43:35.742Z,10.80
2023-02-17T19:46:03.104Z,10.80
2023-02-17T19:48:30.053Z,10.80
2023-02-17T19:51:01.184Z,10.80
2023-02-17T19:53:27.981Z,10.80
2023-02-17T19:55:54.740Z,10.80
2023-02-17T19:58:21.439Z,10.80
2023-02-17T20:00:48.236Z,10.90
2023-02-17T20:03:15.148Z,10.80
2023-02-17T20:05:42.709Z,10.80
2023-02-17T20:08:09.408Z,10.90
2023-02-17T20:10:38.847Z,10.90
2023-02-17T20:13:05.510Z,11.00
2023-02-17T20:15:32.451Z,11.00
2023-02-17T20:17:59.117Z,11.00
2023-02-17T20:20:25.961Z,11.10
2023-02-17T20:22:52.727Z,11.10
2023-02-17T20:25:19.452Z,11.10
2023-02-17T20:27:46.103Z,11.10
2023-02-17T20:30:13.010Z,11.10
2023-02-17T20:32:39.710Z,11.10
2023-02-17T20:35:06.538Z,11.00
2023-02-17T20:37:33.177Z,11.00
2023-02-17T20:40:00.568Z,11.00
2023-02-17T20:42:27.400Z,11.00
2023-02-17T20:44:56.223Z,11.00
2023-02-17T20:47:23.030Z,11.00
2023-02-17T20:49:50.098Z,10.90
2023-02-17T20:52:17.210Z,10.90
2023-02-17T20:54:44.531Z,10.90
2023-02-17T20:57:16.139Z,10.90
2023-02-17T20:59:42.833Z,10.90
2023-02-17T21:02:11.277Z,10.90
2023-02-17T21:04:38.121Z,10.90
2023-02-17T21:07:05.133Z,10.90
2023-02-17T21:09:31.877Z,10.90
2023-02-17T21:11:58.534Z,10.80
2023-02-17T21:14:25.299Z,10.70
2023-02-17T21:16:52.174Z,10.60
2023-02-17T21:19:19.544Z,10.60
2023-02-17T21:21:46.220Z,10.50
2023-02-17T21:24:13.042Z,10.50
2023-02-17T21:26:39.880Z,10.50
2023-02-17T21:29:06.892Z,10.50
2023-02-17T21:31:33.722Z,10.20
2023-02-17T21:34:01.033Z,10.10
2023-02-17T21:36:29.356Z,10.00
2023-02-17T21:38:56.352Z,9.90
2023-02-17T21:41:24.311Z,9.80
2023-02-17T21:44:17.399Z,9.70
2023-02-17T21:46:45.177Z,9.70
2023-02-17T21:49:12.396Z,9.60
2023-02-17T21:51:39.444Z,9.60
2023-02-17T21:54:07.215Z,9.50
2023-02-17T21:56:33.930Z,9.50
2023-02-17T21:59:00.647Z,9.50
2023-02-17T22:01:27.511Z,9.50
2023-02-17T22:03:54.255Z,9.50
2023-02-17T22:06:21.096Z,9.50
2023-02-17T22:08:47.794Z,9.50
2023-02-17T22:11:19.029Z,9.50
2023-02-17T22:13:45.683Z,9.40
2023-02-17T22:16:13.173Z,9.40
2023-02-17T22:18:40.032Z,9.40
2023-02-17T22:21:08.184Z,9.40
2023-02-17T22:23:34.970Z,9.40
2023-02-17T22:26:05.360Z,9.40
2023-02-17T22:28:32.510Z,9.30
2023-02-17T22:30:59.216Z,9.30
2023-02-17T22:33:25.866Z,9.20
2023-02-17T22:36:04.379Z,9.20
2023-02-17T22:38:31.610Z,9.10
2023-02-17T22:40:58.568Z,9.10
2023-02-17T22:43:25.317Z,9.10
2023-02-17T22:45:59.071Z,9.10
2023-02-17T22:48:25.821Z,9.00
2023-02-17T22:50:52.526Z,9.00
2023-02-17T22:53:19.350Z,8.90
2023-02-17T22:55:56.373Z,8.90
2023-02-17T22:58:24.276Z,8.80
2023-02-17T23:00:51.258Z,8.80
2023-02-17T23:03:18.432Z,8.70
2023-02-17T23:05:46.805Z,8.70
2023-02-17T23:08:13.602Z,8.70
2023-02-17T23:10:41.359Z,8.60
2023-02-17T23:13:08.102Z,8.60
2023-02-17T23:15:40.986Z,8.60
2023-02-17T23:18:15.279Z,8.60
2023-02-17T23:20:43.138Z,8.60
2023-02-17T23:23:10.054Z,8.60
2023-02-17T23:25:38.675Z,8.60
2023-02-17T23:28:06.215Z,8.60
2023-02-17T23:30:33.183Z,8.60
2023-02-17T23:32:59.954Z,8.60
2023-02-17T23:35:26.642Z,8.50
2023-02-17T23:37:53.288Z,8.50
2023-02-17T23:40:20.227Z,8.50
2023-02-17T23:42:47.353Z,8.40
2023-02-17T23:45:14.142Z,8.40
2023-02-17T23:47:41.027Z,8.40
2023-02-17T23:50:08.228Z,8.40
2023-02-17T23:52:35.236Z,8.40
2023-02-17T23:55:02.130Z,8.40
2023-02-17T23:57:29.594Z,8.40
2023-02-17T23:59:56.444Z,8.30
